sensor_id;sensor_type;location;lat;lon;timestamp;pressure;altitude;pressure_sealevel;temperature;humidity
12349;BME280;5974;42.710;27.258;2023-05-02T00:01:39;100747.66;;;7.51;100.00
12349;BME280;5974;42.710;27.258;2023-05-02T00:04:06;100737.28;;;7.48;100.00
12349;BME280;5974;42.710;27.258;2023-05-02T00:06:33;100744.16;;;7.53;100.00
12349;BME280;5974;42.710;27.258;2023-05-02T00:09:00;100742.38;;;7.54;100.00
12349;BME280;5974;42.710;27.258;2023-05-02T00:11:27;100744.28;;;7.46;100.00
12349;BME280;5974;42.710;27.258;2023-05-02T00:13:54;100752.25;;;7.37;100.00
12349;BME280;5974;42.710;27.258;2023-05-02T00:16:22;100756.94;;;7.17;100.00
12349;BME280;5974;42.710;27.258;2023-05-02T00:18:49;100756.78;;;7.24;100.00
12349;BME280;5974;42.710;27.258;2023-05-02T00:21:16;100756.94;;;7.17;100.00
12349;BME280;5974;42.710;27.258;2023-05-02T00:23:43;100763.16;;;7.06;100.00
12349;BME280;5974;42.710;27.258;2023-05-02T00:26:10;100755.75;;;6.82;100.00
12349;BME280;5974;42.710;27.258;2023-05-02T00:28:37;100761.47;;;7.04;100.00
12349;BME280;5974;42.710;27.258;2023-05-02T00:31:04;100742.84;;;6.75;100.00
12349;BME280;5974;42.710;27.258;2023-05-02T00:33:33;100758.59;;;6.66;100.00
12349;BME280;5974;42.710;27.258;2023-05-02T00:36:00;100766.28;;;6.73;100.00
12349;BME280;5974;42.710;27.258;2023-05-02T00:38:26;100760.16;;;6.76;100.00
12349;BME280;5974;42.710;27.258;2023-05-02T00:40:53;100758.88;;;7.02;100.00
12349;BME280;5974;42.710;27.258;2023-05-02T00:43:20;100758.69;;;7.16;100.00
12349;BME280;5974;42.710;27.258;2023-05-02T00:45:47;100742.28;;;7.11;100.00
12349;BME280;5974;42.710;27.258;2023-05-02T00:48:14;100756.94;;;7.17;100.00
12349;BME280;5974;42.710;27.258;2023-05-02T00:50:43;100761.88;;;6.78;100.00
12349;BME280;5974;42.710;27.258;2023-05-02T00:53:10;100764.38;;;6.84;100.00
12349;BME280;5974;42.710;27.258;2023-05-02T00:55:37;100759.25;;;6.78;100.00
12349;BME280;5974;42.710;27.258;2023-05-02T00:58:07;100768.75;;;6.81;100.00
12349;BME280;5974;42.710;27.258;2023-05-02T01:00:43;100760.94;;;6.82;100.00
12349;BME280;5974;42.710;27.258;2023-05-02T01:03:19;100767.97;;;6.76;100.00
12349;BME280;5974;42.710;27.258;2023-05-02T01:05:58;100766.28;;;6.73;100.00
12349;BME280;5974;42.710;27.258;2023-05-02T01:08:34;100762.88;;;6.68;100.00
12349;BME280;5974;42.710;27.258;2023-05-02T01:11:12;100757.59;;;6.74;100.00
12349;BME280;5974;42.710;27.258;2023-05-02T01:13:41;100763.84;;;6.61;100.00
12349;BME280;5974;42.710;27.258;2023-05-02T01:16:11;100762.91;;;6.65;100.00
12349;BME280;5974;42.710;27.258;2023-05-02T01:18:40;100761.91;;;6.75;100.00
12349;BME280;5974;42.710;27.258;2023-05-02T01:21:10;100756.72;;;6.75;100.00
12349;BME280;5974;42.710;27.258;2023-05-02T01:23:46;100743.81;;;6.68;100.00
12349;BME280;5974;42.710;27.258;2023-05-02T01:26:28;100752.47;;;6.70;100.00
12349;BME280;5974;42.710;27.258;2023-05-02T01:29:00;100754.97;;;6.74;100.00
12349;BME280;5974;42.710;27.258;2023-05-02T01:31:30;100752.38;;;6.76;100.00
12349;BME280;5974;42.710;27.258;2023-05-02T01:33:59;100748.91;;;6.75;100.00
12349;BME280;5974;42.710;27.258;2023-05-02T01:36:28;100741.22;;;6.68;100.00
12349;BME280;5974;42.710;27.258;2023-05-02T01:38:56;100755.88;;;6.72;100.00
12349;BME280;5974;42.710;27.258;2023-05-02T01:41:26;100754.19;;;6.69;100.00
12349;BME280;5974;42.710;27.258;2023-05-02T01:43:54;100755.06;;;6.70;100.00
12349;BME280;5974;42.710;27.258;2023-05-02T01:46:24;100756.25;;;6.49;100.00
12349;BME280;5974;42.710;27.258;2023-05-02T01:48:53;100758.09;;;6.39;100.00
12349;BME280;5974;42.710;27.258;2023-05-02T01:51:22;100754.31;;;5.96;100.00
12349;BME280;5974;42.710;27.258;2023-05-02T01:53:54;100750.16;;;5.77;100.00
12349;BME280;5974;42.710;27.258;2023-05-02T01:56:23;100715.03;;;5.45;100.00
12349;BME280;5974;42.710;27.258;2023-05-02T01:58:52;100757.47;;;5.37;100.00
12349;BME280;5974;42.710;27.258;2023-05-02T02:01:20;100762.22;;;4.86;100.00
12349;BME280;5974;42.710;27.258;2023-05-02T02:03:51;100766.47;;;4.93;100.00
12349;BME280;5974;42.710;27.258;2023-05-02T02:06:20;100760.28;;;5.11;100.00
12349;BME280;5974;42.710;27.258;2023-05-02T02:08:47;100764.06;;;5.71;100.00
12349;BME280;5974;42.710;27.258;2023-05-02T02:11:17;100769.88;;;5.94;100.00
12349;BME280;5974;42.710;27.258;2023-05-02T02:13:53;100770.75;;;5.96;100.00
12349;BME280;5974;42.710;27.258;2023-05-02T02:16:24;100771.56;;;5.98;100.00
12349;BME280;5974;42.710;27.258;2023-05-02T02:18:58;100769.88;;;5.94;100.00
12349;BME280;5974;42.710;27.258;2023-05-02T02:21:29;100773.41;;;5.89;100.00
12349;BME280;5974;42.710;27.258;2023-05-02T02:23:59;100759.91;;;5.57;100.00
12349;BME280;5974;42.710;27.258;2023-05-02T02:26:27;100765.97;;;5.51;100.00
12349;BME280;5974;42.710;27.258;2023-05-02T02:28:54;100767.78;;;5.46;100.00
12349;BME280;5974;42.710;27.258;2023-05-02T02:31:21;100767.84;;;5.37;100.00
12349;BME280;5974;42.710;27.258;2023-05-02T02:33:50;100769.63;;;5.35;100.00
12349;BME280;5974;42.710;27.258;2023-05-02T02:36:23;100770.47;;;5.34;100.00
12349;BME280;5974;42.710;27.258;2023-05-02T02:39:00;100766.28;;;5.18;100.00
12349;BME280;5974;42.710;27.258;2023-05-02T02:41:32;100766.38;;;5.07;100.00
12349;BME280;5974;42.710;27.258;2023-05-02T02:44:06;100770.66;;;5.13;100.00
12349;BME280;5974;42.710;27.258;2023-05-02T02:46:45;100768.03;;;5.14;100.00
12349;BME280;5974;42.710;27.258;2023-05-02T02:49:24;100775.97;;;4.96;100.00
12349;BME280;5974;42.710;27.258;2023-05-02T02:51:59;100775.88;;;5.07;100.00
12349;BME280;5974;42.710;27.258;2023-05-02T02:54:32;100771.53;;;5.13;100.00
12349;BME280;5974;42.710;27.258;2023-05-02T02:57:06;100775.84;;;5.11;100.00
12349;BME280;5974;42.710;27.258;2023-05-02T02:59:41;100774.97;;;5.11;100.00
12349;BME280;5974;42.710;27.258;2023-05-02T03:02:08;100779.31;;;5.09;100.00
12349;BME280;5974;42.710;27.258;2023-05-02T03:04:40;100775.75;;;5.22;100.00
12349;BME280;5974;42.710;27.258;2023-05-02T03:07:09;100777.53;;;5.14;100.00
12349;BME280;5974;42.710;27.258;2023-05-02T03:09:42;100782.63;;;5.29;100.00
12349;BME280;5974;42.710;27.258;2023-05-02T03:12:09;100786.91;;;5.33;100.00
12349;BME280;5974;42.710;27.258;2023-05-02T03:14:37;100787.69;;;5.39;100.00
12349;BME280;5974;42.710;27.258;2023-05-02T03:17:04;100786.81;;;5.42;100.00
12349;BME280;5974;42.710;27.258;2023-05-02T03:19:32;100795.66;;;5.20;100.00
12349;BME280;5974;42.710;27.258;2023-05-02T03:21:59;100801.56;;;5.35;100.00
12349;BME280;5974;42.710;27.258;2023-05-02T03:24:27;100797.97;;;5.53;100.00
12349;BME280;5974;42.710;27.258;2023-05-02T03:26:54;100797.91;;;5.58;100.00
12349;BME280;5974;42.710;27.258;2023-05-02T03:29:21;100802.72;;;5.00;100.00
12349;BME280;5974;42.710;27.258;2023-05-02T03:31:48;100816.44;;;5.12;100.00
12349;BME280;5974;42.710;27.258;2023-05-02T03:34:15;100813.59;;;5.42;100.00
12349;BME280;5974;42.710;27.258;2023-05-02T03:36:44;100815.50;;;5.22;100.00
12349;BME280;5974;42.710;27.258;2023-05-02T03:39:10;100816.97;;;5.57;100.00
12349;BME280;5974;42.710;27.258;2023-05-02T03:41:39;100814.97;;;5.83;100.00
12349;BME280;5974;42.710;27.258;2023-05-02T03:44:06;100820.03;;;5.98;100.00
12349;BME280;5974;42.710;27.258;2023-05-02T03:46:33;100826.69;;;6.19;100.00
12349;BME280;5974;42.710;27.258;2023-05-02T03:49:00;100824.78;;;6.36;100.00
12349;BME280;5974;42.710;27.258;2023-05-02T03:51:27;100830.59;;;6.56;100.00
12349;BME280;5974;42.710;27.258;2023-05-02T03:53:54;100836.47;;;6.70;100.00
12349;BME280;5974;42.710;27.258;2023-05-02T03:56:21;100836.28;;;6.84;100.00
12349;BME280;5974;42.710;27.258;2023-05-02T03:58:49;100843.81;;;7.02;100.00
12349;BME280;5974;42.710;27.258;2023-05-02T04:01:16;100838.81;;;6.88;100.00
12349;BME280;5974;42.710;27.258;2023-05-02T04:03:43;100844.84;;;6.92;100.00
12349;BME280;5974;42.710;27.258;2023-05-02T04:06:10;100843.03;;;7.52;100.00
12349;BME280;5974;42.710;27.258;2023-05-02T04:08:37;100831.19;;;7.85;100.00
12349;BME280;5974;42.710;27.258;2023-05-02T04:11:04;100833.25;;;8.13;100.00
12349;BME280;5974;42.710;27.258;2023-05-02T04:13:31;100832.28;;;8.62;100.00
12349;BME280;5974;42.710;27.258;2023-05-02T04:15:59;100828.16;;;9.98;100.00
12349;BME280;5974;42.710;27.258;2023-05-02T04:18:26;100828.13;;;12.21;100.00
12349;BME280;5974;42.710;27.258;2023-05-02T04:20:53;100856.06;;;14.21;95.53
12349;BME280;5974;42.710;27.258;2023-05-02T04:23:20;100825.34;;;16.53;80.04
12349;BME280;5974;42.710;27.258;2023-05-02T04:25:50;100817.72;;;19.42;68.48
12349;BME280;5974;42.710;27.258;2023-05-02T04:28:19;100830.00;;;22.14;56.19
12349;BME280;5974;42.710;27.258;2023-05-02T04:30:46;100825.44;;;24.52;47.06
12349;BME280;5974;42.710;27.258;2023-05-02T04:33:14;100815.28;;;26.58;40.89
12349;BME280;5974;42.710;27.258;2023-05-02T04:35:41;100827.78;;;28.02;38.37
12349;BME280;5974;42.710;27.258;2023-05-02T04:38:08;100827.69;;;28.37;36.60
12349;BME280;5974;42.710;27.258;2023-05-02T04:40:35;100826.75;;;24.27;40.54
12349;BME280;5974;42.710;27.258;2023-05-02T04:43:02;100833.22;;;23.72;41.80
12349;BME280;5974;42.710;27.258;2023-05-02T04:45:29;100828.75;;;23.93;41.87
12349;BME280;5974;42.710;27.258;2023-05-02T04:47:56;100830.44;;;23.94;41.67
12349;BME280;5974;42.710;27.258;2023-05-02T04:50:25;100826.34;;;24.92;40.23
12349;BME280;5974;42.710;27.258;2023-05-02T04:52:52;100837.16;;;23.57;40.13
12349;BME280;5974;42.710;27.258;2023-05-02T04:55:19;100828.25;;;23.99;39.07
12349;BME280;5974;42.710;27.258;2023-05-02T04:57:46;100838.59;;;26.02;38.25
12349;BME280;5974;42.710;27.258;2023-05-02T05:00:13;100835.63;;;25.85;37.37
12349;BME280;5974;42.710;27.258;2023-05-02T05:02:40;100836.69;;;24.76;37.41
12349;BME280;5974;42.710;27.258;2023-05-02T05:05:07;100838.94;;;23.99;39.06
12349;BME280;5974;42.710;27.258;2023-05-02T05:07:35;100842.03;;;24.04;40.19
12349;BME280;5974;42.710;27.258;2023-05-02T05:10:03;100843.78;;;23.42;40.73
12349;BME280;5974;42.710;27.258;2023-05-02T05:12:30;100846.75;;;24.33;40.07
12349;BME280;5974;42.710;27.258;2023-05-02T05:14:57;100844.75;;;25.25;38.73
12349;BME280;5974;42.710;27.258;2023-05-02T05:17:23;100848.94;;;25.09;38.73
12349;BME280;5974;42.710;27.258;2023-05-02T05:19:51;100854.94;;;23.47;40.11
12349;BME280;5974;42.710;27.258;2023-05-02T05:22:17;100854.34;;;24.58;39.19
12349;BME280;5974;42.710;27.258;2023-05-02T05:24:51;100804.63;;;25.54;37.68
12349;BME280;5974;42.710;27.258;2023-05-02T05:27:19;100851.63;;;24.48;38.72
12349;BME280;5974;42.710;27.258;2023-05-02T05:29:46;100851.56;;;26.99;37.51
12349;BME280;5974;42.710;27.258;2023-05-02T05:32:13;100850.34;;;26.47;37.23
12349;BME280;5974;42.710;27.258;2023-05-02T05:34:40;100855.56;;;27.40;36.66
12349;BME280;5974;42.710;27.258;2023-05-02T05:37:07;100864.63;;;27.39;36.56
12349;BME280;5974;42.710;27.258;2023-05-02T05:39:34;100864.22;;;27.43;37.36
12349;BME280;5974;42.710;27.258;2023-05-02T05:42:02;100859.81;;;27.60;36.99
12349;BME280;5974;42.710;27.258;2023-05-02T05:44:30;100856.88;;;29.18;35.64
12349;BME280;5974;42.710;27.258;2023-05-02T05:46:57;100847.44;;;28.80;36.17
12349;BME280;5974;42.710;27.258;2023-05-02T05:49:24;100871.34;;;28.06;36.11
12349;BME280;5974;42.710;27.258;2023-05-02T05:51:50;100872.06;;;28.08;35.58
12349;BME280;5974;42.710;27.258;2023-05-02T05:54:17;100875.56;;;28.51;35.05
12349;BME280;5974;42.710;27.258;2023-05-02T05:56:44;100864.19;;;27.79;35.88
12349;BME280;5974;42.710;27.258;2023-05-02T05:59:13;100866.56;;;29.02;34.77
12349;BME280;5974;42.710;27.258;2023-05-02T06:01:40;100879.06;;;29.62;34.46
12349;BME280;5974;42.710;27.258;2023-05-02T06:04:07;100874.72;;;29.85;33.70
12349;BME280;5974;42.710;27.258;2023-05-02T06:06:34;100877.34;;;30.74;32.72
12349;BME280;5974;42.710;27.258;2023-05-02T06:09:01;100888.16;;;29.69;32.86
12349;BME280;5974;42.710;27.258;2023-05-02T06:11:28;100888.22;;;31.12;31.51
12349;BME280;5974;42.710;27.258;2023-05-02T06:13:55;100881.47;;;31.93;31.67
12349;BME280;5974;42.710;27.258;2023-05-02T06:16:23;100877.50;;;34.07;28.73
12349;BME280;5974;42.710;27.258;2023-05-02T06:18:50;100870.97;;;33.23;28.83
12349;BME280;5974;42.710;27.258;2023-05-02T06:21:18;100878.03;;;30.68;29.95
12349;BME280;5974;42.710;27.258;2023-05-02T06:23:45;100860.91;;;30.91;29.92
12349;BME280;5974;42.710;27.258;2023-05-02T06:26:12;100887.44;;;30.96;29.96
12349;BME280;5974;42.710;27.258;2023-05-02T06:28:39;100885.84;;;30.54;29.71
12349;BME280;5974;42.710;27.258;2023-05-02T06:31:06;100884.22;;;31.00;30.21
12349;BME280;5974;42.710;27.258;2023-05-02T06:33:35;100873.66;;;31.13;29.61
12349;BME280;5974;42.710;27.258;2023-05-02T06:36:02;100886.91;;;30.92;29.21
12349;BME280;5974;42.710;27.258;2023-05-02T06:38:29;100886.34;;;32.20;27.91
12349;BME280;5974;42.710;27.258;2023-05-02T06:40:56;100882.25;;;31.79;27.14
12349;BME280;5974;42.710;27.258;2023-05-02T06:43:23;100883.44;;;31.53;27.39
12349;BME280;5974;42.710;27.258;2023-05-02T06:45:52;100865.66;;;32.42;27.32
12349;BME280;5974;42.710;27.258;2023-05-02T06:48:19;100883.38;;;33.32;25.91
12349;BME280;5974;42.710;27.258;2023-05-02T06:50:48;100871.84;;;33.59;26.10
12349;BME280;5974;42.710;27.258;2023-05-02T06:53:17;100882.19;;;32.47;27.46
12349;BME280;5974;42.710;27.258;2023-05-02T06:55:44;100880.22;;;34.07;24.93
12349;BME280;5974;42.710;27.258;2023-05-02T06:58:11;100883.97;;;33.63;26.05
12349;BME280;5974;42.710;27.258;2023-05-02T07:00:38;100887.81;;;32.74;25.60
12349;BME280;5974;42.710;27.258;2023-05-02T07:03:05;100885.56;;;32.93;25.91
12349;BME280;5974;42.710;27.258;2023-05-02T07:05:32;100882.19;;;34.13;24.38
12349;BME280;5974;42.710;27.258;2023-05-02T07:08:00;100881.00;;;34.50;24.14
12349;BME280;5974;42.710;27.258;2023-05-02T07:10:27;100887.09;;;36.53;22.51
12349;BME280;5974;42.710;27.258;2023-05-02T07:12:54;100885.75;;;35.57;23.90
12349;BME280;5974;42.710;27.258;2023-05-02T07:15:21;100891.63;;;34.45;23.78
12349;BME280;5974;42.710;27.258;2023-05-02T07:17:47;100894.88;;;34.96;24.32
12349;BME280;5974;42.710;27.258;2023-05-02T07:20:14;100895.38;;;31.90;24.33
12349;BME280;5974;42.710;27.258;2023-05-02T07:22:41;100888.69;;;33.76;24.05
12349;BME280;5974;42.710;27.258;2023-05-02T07:25:10;100879.47;;;33.35;25.76
12349;BME280;5974;42.710;27.258;2023-05-02T07:27:37;100885.88;;;33.12;25.79
12349;BME280;5974;42.710;27.258;2023-05-02T07:30:04;100884.75;;;33.07;25.27
12349;BME280;5974;42.710;27.258;2023-05-02T07:32:32;100895.13;;;32.59;26.21
12349;BME280;5974;42.710;27.258;2023-05-02T07:34:58;100877.06;;;31.38;26.90
12349;BME280;5974;42.710;27.258;2023-05-02T07:37:26;100888.75;;;33.11;26.87
12349;BME280;5974;42.710;27.258;2023-05-02T07:39:53;100895.47;;;32.56;26.16
12349;BME280;5974;42.710;27.258;2023-05-02T07:42:21;100901.22;;;30.14;28.36
12349;BME280;5974;42.710;27.258;2023-05-02T07:44:48;100899.91;;;27.26;30.32
12349;BME280;5974;42.710;27.258;2023-05-02T07:47:15;100894.72;;;26.03;31.71
12349;BME280;5974;42.710;27.258;2023-05-02T07:49:41;100899.28;;;24.85;36.23
12349;BME280;5974;42.710;27.258;2023-05-02T07:52:08;100891.41;;;24.42;35.93
12349;BME280;5974;42.710;27.258;2023-05-02T07:54:35;100898.44;;;24.43;36.92
12349;BME280;5974;42.710;27.258;2023-05-02T07:57:02;100897.31;;;23.72;36.87
12349;BME280;5974;42.710;27.258;2023-05-02T07:59:34;100905.63;;;22.47;35.02
12349;BME280;5974;42.710;27.258;2023-05-02T08:02:01;100896.06;;;22.55;35.34
12349;BME280;5974;42.710;27.258;2023-05-02T08:04:27;100894.19;;;22.68;37.19
12349;BME280;5974;42.710;27.258;2023-05-02T08:06:54;100897.22;;;22.75;37.72
12349;BME280;5974;42.710;27.258;2023-05-02T08:09:22;100894.53;;;23.08;36.77
12349;BME280;5974;42.710;27.258;2023-05-02T08:11:48;100888.22;;;22.98;38.64
12349;BME280;5974;42.710;27.258;2023-05-02T08:14:15;100890.50;;;23.25;34.52
12349;BME280;5974;42.710;27.258;2023-05-02T08:16:43;100881.09;;;22.88;36.46
12349;BME280;5974;42.710;27.258;2023-05-02T08:19:10;100877.69;;;22.86;37.73
12349;BME280;5974;42.710;27.258;2023-05-02T08:21:37;100879.47;;;21.71;35.33
12349;BME280;5974;42.710;27.258;2023-05-02T08:24:04;100884.38;;;21.88;37.25
12349;BME280;5974;42.710;27.258;2023-05-02T08:26:31;100894.00;;;22.02;36.40
12349;BME280;5974;42.710;27.258;2023-05-02T08:28:58;100882.69;;;21.63;35.74
12349;BME280;5974;42.710;27.258;2023-05-02T08:31:25;100883.28;;;22.26;36.47
12349;BME280;5974;42.710;27.258;2023-05-02T08:33:53;100889.41;;;22.04;36.35
12349;BME280;5974;42.710;27.258;2023-05-02T08:36:20;100889.81;;;22.22;34.80
12349;BME280;5974;42.710;27.258;2023-05-02T08:38:47;100887.19;;;22.44;35.24
12349;BME280;5974;42.710;27.258;2023-05-02T08:41:16;100892.66;;;22.64;38.48
12349;BME280;5974;42.710;27.258;2023-05-02T08:43:43;100887.69;;;22.38;34.50
12349;BME280;5974;42.710;27.258;2023-05-02T08:46:12;100882.50;;;22.01;33.86
12349;BME280;5974;42.710;27.258;2023-05-02T08:48:40;100883.09;;;21.81;34.79
12349;BME280;5974;42.710;27.258;2023-05-02T08:51:12;100883.44;;;21.89;37.25
12349;BME280;5974;42.710;27.258;2023-05-02T08:53:39;100883.81;;;22.53;34.96
12349;BME280;5974;42.710;27.258;2023-05-02T08:56:08;100881.41;;;22.39;35.89
12349;BME280;5974;42.710;27.258;2023-05-02T08:58:37;100882.28;;;21.81;37.24
12349;BME280;5974;42.710;27.258;2023-05-02T09:01:09;100887.16;;;22.22;36.73
12349;BME280;5974;42.710;27.258;2023-05-02T09:03:39;100887.84;;;22.12;35.51
12349;BME280;5974;42.710;27.258;2023-05-02T09:06:11;100880.72;;;22.24;37.59
12349;BME280;5974;42.710;27.258;2023-05-02T09:08:39;100882.34;;;21.68;35.72
12349;BME280;5974;42.710;27.258;2023-05-02T09:11:08;100875.66;;;21.86;35.06
12349;BME280;5974;42.710;27.258;2023-05-02T09:13:36;100868.06;;;21.93;38.76
12349;BME280;5974;42.710;27.258;2023-05-02T09:16:06;100873.88;;;22.33;37.97
12349;BME280;5974;42.710;27.258;2023-05-02T09:18:34;100881.50;;;21.91;37.35
12349;BME280;5974;42.710;27.258;2023-05-02T09:21:04;100864.13;;;21.86;38.11
12349;BME280;5974;42.710;27.258;2023-05-02T09:23:37;100870.50;;;22.42;39.20
12349;BME280;5974;42.710;27.258;2023-05-02T09:26:16;100857.66;;;22.47;36.64
12349;BME280;5974;42.710;27.258;2023-05-02T09:28:44;100866.44;;;22.82;38.11
12349;BME280;5974;42.710;27.258;2023-05-02T09:31:13;100869.78;;;22.62;37.23
12349;BME280;5974;42.710;27.258;2023-05-02T09:33:40;100863.34;;;22.64;36.90
12349;BME280;5974;42.710;27.258;2023-05-02T09:36:09;100860.88;;;22.17;35.77
12349;BME280;5974;42.710;27.258;2023-05-02T09:38:38;100855.31;;;22.31;36.39
12349;BME280;5974;42.710;27.258;2023-05-02T09:41:05;100875.34;;;22.59;36.44
12349;BME280;5974;42.710;27.258;2023-05-02T09:43:33;100825.53;;;22.37;38.27
12349;BME280;5974;42.710;27.258;2023-05-02T09:46:01;100857.81;;;22.79;37.42
12349;BME280;5974;42.710;27.258;2023-05-02T09:48:30;100874.81;;;22.21;35.11
12349;BME280;5974;42.710;27.258;2023-05-02T09:50:57;100858.97;;;22.30;36.94
12349;BME280;5974;42.710;27.258;2023-05-02T09:53:25;100870.31;;;22.67;36.65
12349;BME280;5974;42.710;27.258;2023-05-02T09:56:00;100864.31;;;22.30;36.28
12349;BME280;5974;42.710;27.258;2023-05-02T09:58:28;100873.34;;;22.17;34.47
12349;BME280;5974;42.710;27.258;2023-05-02T10:00:56;100825.84;;;21.99;35.95
12349;BME280;5974;42.710;27.258;2023-05-02T10:03:25;100862.84;;;22.37;34.39
12349;BME280;5974;42.710;27.258;2023-05-02T10:05:52;100875.25;;;21.80;34.75
12349;BME280;5974;42.710;27.258;2023-05-02T10:08:20;100861.06;;;21.68;35.60
12349;BME280;5974;42.710;27.258;2023-05-02T10:10:51;100872.56;;;21.92;36.03
12349;BME280;5974;42.710;27.258;2023-05-02T10:13:22;100882.13;;;21.71;34.63
12349;BME280;5974;42.710;27.258;2023-05-02T10:15:57;100879.50;;;21.82;34.63
12349;BME280;5974;42.710;27.258;2023-05-02T10:18:27;100866.59;;;21.65;34.31
12349;BME280;5974;42.710;27.258;2023-05-02T10:20:56;100866.22;;;21.58;35.13
12349;BME280;5974;42.710;27.258;2023-05-02T10:23:25;100850.28;;;21.46;34.98
12349;BME280;5974;42.710;27.258;2023-05-02T10:25:53;100864.56;;;21.92;35.37
12349;BME280;5974;42.710;27.258;2023-05-02T10:28:21;100855.63;;;22.04;35.22
12349;BME280;5974;42.710;27.258;2023-05-02T10:30:49;100863.88;;;21.54;36.45
12349;BME280;5974;42.710;27.258;2023-05-02T10:33:19;100859.63;;;22.10;36.06
12349;BME280;5974;42.710;27.258;2023-05-02T10:35:46;100864.94;;;21.51;35.30
12349;BME280;5974;42.710;27.258;2023-05-02T10:38:15;100874.50;;;22.01;37.35
12349;BME280;5974;42.710;27.258;2023-05-02T10:40:49;100874.53;;;22.12;36.53
12349;BME280;5974;42.710;27.258;2023-05-02T10:43:23;100864.78;;;21.89;35.42
12349;BME280;5974;42.710;27.258;2023-05-02T10:45:51;100862.91;;;22.02;36.63
12349;BME280;5974;42.710;27.258;2023-05-02T10:48:20;100870.31;;;21.86;35.43
12349;BME280;5974;42.710;27.258;2023-05-02T10:50:49;100868.47;;;21.99;35.19
12349;BME280;5974;42.710;27.258;2023-05-02T10:53:30;100860.25;;;22.02;36.33
12349;BME280;5974;42.710;27.258;2023-05-02T10:56:16;100866.03;;;21.96;35.19
12349;BME280;5974;42.710;27.258;2023-05-02T10:58:48;100870.78;;;21.80;35.51
12349;BME280;5974;42.710;27.258;2023-05-02T11:01:36;100872.88;;;21.64;36.42
12349;BME280;5974;42.710;27.258;2023-05-02T11:04:05;100880.53;;;21.45;35.05
12349;BME280;5974;42.710;27.258;2023-05-02T11:06:34;100828.66;;;21.27;37.03
12349;BME280;5974;42.710;27.258;2023-05-02T11:09:29;100864.59;;;22.03;37.06
12349;BME280;5974;42.710;27.258;2023-05-02T11:11:57;100866.22;;;22.17;36.98
12349;BME280;5974;42.710;27.258;2023-05-02T11:14:46;100868.03;;;22.17;35.37
12349;BME280;5974;42.710;27.258;2023-05-02T11:17:14;100871.03;;;22.12;35.67
12349;BME280;5974;42.710;27.258;2023-05-02T11:22:52;100849.44;;;21.93;35.25
12349;BME280;5974;42.710;27.258;2023-05-02T11:25:30;100856.56;;;21.92;35.35
12349;BME280;5974;42.710;27.258;2023-05-02T11:27:57;100856.56;;;21.92;36.99
12349;BME280;5974;42.710;27.258;2023-05-02T11:30:44;100862.59;;;22.29;35.16
12349;BME280;5974;42.710;27.258;2023-05-02T11:33:17;100847.44;;;21.84;34.09
12349;BME280;5974;42.710;27.258;2023-05-02T11:35:45;100868.34;;;21.77;35.52
12349;BME280;5974;42.710;27.258;2023-05-02T11:38:20;100865.50;;;21.91;35.32
12349;BME280;5974;42.710;27.258;2023-05-02T11:40:54;100867.28;;;21.56;34.29
12349;BME280;5974;42.710;27.258;2023-05-02T11:43:22;100861.69;;;21.72;34.62
12349;BME280;5974;42.710;27.258;2023-05-02T11:45:52;100873.22;;;21.83;34.41
12349;BME280;5974;42.710;27.258;2023-05-02T11:48:21;100863.97;;;21.29;35.50
12349;BME280;5974;42.710;27.258;2023-05-02T11:50:49;100866.34;;;21.08;33.83
12349;BME280;5974;42.710;27.258;2023-05-02T11:53:18;100857.41;;;21.22;35.18
12349;BME280;5974;42.710;27.258;2023-05-02T11:55:48;100858.22;;;21.58;35.36
12349;BME280;5974;42.710;27.258;2023-05-02T11:58:16;100857.75;;;21.88;35.02
12349;BME280;5974;42.710;27.258;2023-05-02T12:00:45;100852.81;;;21.47;35.97
12349;BME280;5974;42.710;27.258;2023-05-02T12:03:34;100858.78;;;21.51;36.13
12349;BME280;5974;42.710;27.258;2023-05-02T12:06:08;100842.88;;;21.62;33.99
12349;BME280;5974;42.710;27.258;2023-05-02T12:08:36;100847.84;;;21.67;34.21
12349;BME280;5974;42.710;27.258;2023-05-02T12:11:03;100857.09;;;21.50;34.90
12349;BME280;5974;42.710;27.258;2023-05-02T12:13:31;100855.72;;;21.68;34.00
12349;BME280;5974;42.710;27.258;2023-05-02T12:15:58;100857.25;;;21.83;36.30
12349;BME280;5974;42.710;27.258;2023-05-02T12:18:25;100847.72;;;21.92;38.04
12349;BME280;5974;42.710;27.258;2023-05-02T12:20:55;100845.81;;;21.81;34.52
12349;BME280;5974;42.710;27.258;2023-05-02T12:23:23;100839.03;;;21.42;35.38
12349;BME280;5974;42.710;27.258;2023-05-02T12:25:51;100846.81;;;21.33;36.25
12349;BME280;5974;42.710;27.258;2023-05-02T12:28:19;100832.75;;;21.07;36.41
12349;BME280;5974;42.710;27.258;2023-05-02T12:30:48;100836.19;;;21.33;36.62
12349;BME280;5974;42.710;27.258;2023-05-02T12:33:16;100844.22;;;21.07;35.81
12349;BME280;5974;42.710;27.258;2023-05-02T12:35:43;100827.31;;;20.72;37.22
12349;BME280;5974;42.710;27.258;2023-05-02T12:38:15;100826.00;;;20.78;36.86
12349;BME280;5974;42.710;27.258;2023-05-02T12:40:47;100821.56;;;20.78;36.85
12349;BME280;5974;42.710;27.258;2023-05-02T12:43:15;100824.38;;;21.13;36.48
12349;BME280;5974;42.710;27.258;2023-05-02T12:45:42;100815.13;;;20.44;35.93
12349;BME280;5974;42.710;27.258;2023-05-02T12:48:22;100802.88;;;20.67;36.08
12349;BME280;5974;42.710;27.258;2023-05-02T12:50:50;100816.00;;;20.81;36.20
12349;BME280;5974;42.710;27.258;2023-05-02T12:53:36;100815.34;;;20.29;36.33
12349;BME280;5974;42.710;27.258;2023-05-02T12:56:05;100800.63;;;20.61;36.02
12349;BME280;5974;42.710;27.258;2023-05-02T12:58:40;100801.22;;;20.77;36.05
12349;BME280;5974;42.710;27.258;2023-05-02T13:01:07;100769.81;;;20.59;35.99
12349;BME280;5974;42.710;27.258;2023-05-02T13:03:35;100792.06;;;20.45;36.83